Time;durP1;ratioP1;P1;durP2;ratioP2;P2;SDS_P1;SDS_P2;PMS_P1;PMS_P2;Temp;Humidity;BMP_temperature;BMP_pressure;BME280_temperature;BME280_humidity;BME280_pressure;Samples;Min_cycle;Max_cycle;Signal;HPM_P1;HPM_P2
2021/10/10 00:03:12;;;;;;;15.75;8.73;;;;;;;7.48;74.44;102988.78;10364908;27;20040;-70
2021/10/10 00:08:08;;;;;;;13.75;9.20;;;;;;;7.46;74.77;102977.28;10361828;28;20039;-69
2021/10/10 00:13:08;;;;;;;14.93;9.60;;;;;;;7.43;74.83;102977.78;10350003;28;20097;-69
2021/10/10 00:18:05;;;;;;;15.73;8.95;;;;;;;7.42;75.06;102976.13;10342326;28;20047;-70
2021/10/10 00:23:01;;;;;;;16.08;8.63;;;;;;;7.36;74.85;102983.38;10361263;27;20513;-70
2021/10/10 00:28:00;;;;;;;13.85;8.63;;;;;;;7.33;74.94;102973.78;10361464;27;20036;-69
2021/10/10 00:32:56;;;;;;;18.30;9.05;;;;;;;7.28;75.04;102972.84;10369658;28;20048;-70
2021/10/10 00:37:53;;;;;;;15.35;9.60;;;;;;;7.21;74.96;102970.25;10352442;27;20068;-69
2021/10/10 00:42:49;;;;;;;13.23;8.98;;;;;;;7.14;75.39;102969.56;10357510;27;20048;-69
2021/10/10 00:47:46;;;;;;;14.63;9.85;;;;;;;7.10;75.44;102965.66;10348351;28;20083;-70
2021/10/10 00:52:45;;;;;;;13.27;9.15;;;;;;;7.09;75.31;102962.09;10345775;27;20083;-69
2021/10/10 00:57:47;;;;;;;16.67;9.82;;;;;;;7.05;75.63;102965.53;10351323;27;20051;-69
2021/10/10 01:02:44;;;;;;;13.98;9.60;;;;;;;6.99;75.66;102955.63;10354287;27;20040;-70
2021/10/10 01:07:41;;;;;;;15.32;8.77;;;;;;;6.91;75.85;102954.91;10353330;27;20035;-69
2021/10/10 01:12:40;;;;;;;17.42;9.75;;;;;;;6.85;75.98;102953.16;10365224;27;20052;-70
2021/10/10 01:17:37;;;;;;;15.77;9.52;;;;;;;6.77;76.15;102948.06;10361730;27;20044;-70
2021/10/10 01:22:34;;;;;;;16.20;9.30;;;;;;;6.74;76.18;102948.56;10360701;27;20044;-69
2021/10/10 01:27:31;;;;;;;14.80;9.02;;;;;;;6.72;76.58;102945.25;10360717;28;20048;-69
2021/10/10 01:32:27;;;;;;;16.35;9.35;;;;;;;6.69;76.33;102945.72;10359346;27;20056;-68
2021/10/10 01:37:25;;;;;;;16.60;9.48;;;;;;;6.64;76.33;102942.91;10353997;28;20136;-69
2021/10/10 01:42:21;;;;;;;14.80;9.57;;;;;;;6.57;76.67;102937.56;10357549;27;20631;-69
2021/10/10 01:47:18;;;;;;;14.57;8.57;;;;;;;6.48;76.95;102934.38;10358269;27;20502;-69
2021/10/10 01:52:14;;;;;;;15.02;9.15;;;;;;;6.41;76.69;102936.38;10340316;27;20067;-68
2021/10/10 01:57:11;;;;;;;13.38;9.10;;;;;;;6.31;77.14;102933.41;10348409;27;20635;-69
2021/10/10 02:02:07;;;;;;;14.90;9.25;;;;;;;6.25;77.32;102923.50;10341523;28;20155;-68
2021/10/10 02:07:04;;;;;;;16.58;9.35;;;;;;;6.23;77.69;102931.06;10353487;27;20037;-69
2021/10/10 02:12:00;;;;;;;16.33;9.20;;;;;;;6.18;77.78;102922.78;10349299;27;20109;-70
2021/10/10 02:16:57;;;;;;;16.08;9.77;;;;;;;6.14;78.15;102927.03;10365131;27;20048;-69
2021/10/10 02:21:53;;;;;;;14.50;9.10;;;;;;;6.02;77.90;102925.09;10369320;27;20124;-69
2021/10/10 02:26:50;;;;;;;16.13;9.95;;;;;;;6.02;78.15;102924.28;10373159;27;20056;-68
2021/10/10 02:31:46;;;;;;;16.85;9.60;;;;;;;5.98;77.97;102929.34;10362079;27;20072;-68
2021/10/10 02:36:43;;;;;;;14.40;9.00;;;;;;;5.97;78.11;102922.25;10362172;27;20468;-69
2021/10/10 02:41:39;;;;;;;15.40;9.38;;;;;;;5.94;78.37;102916.44;10363709;27;20135;-69
2021/10/10 02:46:36;;;;;;;14.25;9.13;;;;;;;5.91;78.29;102913.13;10355789;27;20067;-69
2021/10/10 02:51:32;;;;;;;16.17;9.73;;;;;;;5.89;78.10;102906.25;10354976;28;20174;-70
2021/10/10 02:56:29;;;;;;;16.35;9.88;;;;;;;5.82;78.29;102902.81;10347592;28;20075;-69
2021/10/10 03:01:25;;;;;;;16.10;9.60;;;;;;;5.78;78.36;102898.91;10369594;27;20047;-69
2021/10/10 03:06:22;;;;;;;15.43;9.70;;;;;;;5.72;78.75;102899.88;10358482;27;20062;-69
2021/10/10 03:11:19;;;;;;;14.27;8.52;;;;;;;5.73;79.09;102909.66;10363154;27;20048;-69
2021/10/10 03:16:15;;;;;;;16.77;9.63;;;;;;;5.70;78.63;102895.47;10360218;27;20044;-68
2021/10/10 03:21:11;;;;;;;12.60;9.13;;;;;;;5.66;79.36;102899.72;10371920;27;20575;-69
2021/10/10 03:26:08;;;;;;;14.23;9.63;;;;;;;5.59;78.92;102893.56;10367369;27;20092;-69
2021/10/10 03:31:04;;;;;;;15.88;10.18;;;;;;;5.55;78.96;102891.56;10359681;28;20044;-68
2021/10/10 03:36:01;;;;;;;15.25;9.70;;;;;;;5.49;78.92;102885.16;10365236;27;20053;-69
2021/10/10 03:40:58;;;;;;;14.80;9.40;;;;;;;5.49;78.67;102882.44;10368920;28;20040;-69
2021/10/10 03:45:54;;;;;;;15.82;10.27;;;;;;;5.44;78.68;102876.88;10367016;27;20097;-69
2021/10/10 03:50:51;;;;;;;16.52;10.38;;;;;;;5.36;78.85;102871.75;10355407;28;20067;-69
2021/10/10 03:55:51;;;;;;;19.40;9.98;;;;;;;5.30;79.16;102869.97;10347938;27;20044;-69
2021/10/10 04:00:48;;;;;;;15.30;10.10;;;;;;;5.27;79.28;102869.38;10360822;28;20086;-68
2021/10/10 04:05:46;;;;;;;15.23;9.40;;;;;;;5.26;78.97;102862.28;10350162;27;20477;-69
2021/10/10 04:10:42;;;;;;;16.83;9.57;;;;;;;5.21;78.83;102856.72;10354254;27;20464;-69
2021/10/10 04:15:39;;;;;;;16.17;10.20;;;;;;;5.19;78.82;102852.59;10360647;27;20066;-70
2021/10/10 04:20:35;;;;;;;18.67;9.82;;;;;;;5.18;78.65;102843.63;10343582;28;20673;-70
2021/10/10 04:25:32;;;;;;;15.88;9.40;;;;;;;5.13;78.48;102840.78;10344040;27;20130;-70
2021/10/10 04:30:28;;;;;;;18.70;10.57;;;;;;;5.05;78.66;102839.19;10335738;28;20086;-69
2021/10/10 04:35:25;;;;;;;17.33;9.95;;;;;;;5.01;79.41;102839.88;10354333;27;20063;-69
2021/10/10 04:40:22;;;;;;;15.43;9.82;;;;;;;4.99;79.19;102828.44;10349001;27;20047;-70
2021/10/10 04:45:18;;;;;;;19.63;9.88;;;;;;;4.97;79.01;102825.16;10358638;28;20090;-69
2021/10/10 04:50:15;;;;;;;16.75;10.88;;;;;;;4.94;79.82;102825.59;10345525;27;20040;-69
2021/10/10 04:55:12;;;;;;;15.10;10.23;;;;;;;4.93;79.29;102808.50;10358880;28;20115;-69
2021/10/10 05:00:10;;;;;;;18.45;9.90;;;;;;;4.90;79.75;102813.53;10372079;27;20109;-68
2021/10/10 05:05:07;;;;;;;18.90;11.30;;;;;;;4.94;80.07;102803.91;10366459;28;20055;-68
2021/10/10 05:10:03;;;;;;;17.52;10.27;;;;;;;4.91;80.19;102804.38;10351397;28;20039;-68
2021/10/10 05:15:00;;;;;;;16.70;10.27;;;;;;;4.90;79.66;102802.69;10359666;28;20094;-69
2021/10/10 05:19:56;;;;;;;20.27;10.43;;;;;;;4.89;79.38;102806.47;10360886;28;20087;-69
2021/10/10 05:24:54;;;;;;;16.58;10.32;;;;;;;4.82;80.39;102795.72;10350835;28;20566;-70
2021/10/10 05:29:52;;;;;;;14.07;9.65;;;;;;;4.78;80.02;102784.53;10353624;27;20036;-68
2021/10/10 05:34:49;;;;;;;16.85;11.25;;;;;;;4.78;80.48;102787.22;10344554;28;20126;-69
2021/10/10 05:39:45;;;;;;;17.08;10.73;;;;;;;4.78;80.73;102789.09;10344151;27;20075;-68
2021/10/10 05:44:42;;;;;;;15.95;10.73;;;;;;;4.78;80.49;102780.97;10361470;27;20700;-68
2021/10/10 05:49:39;;;;;;;16.73;11.00;;;;;;;4.77;80.52;102788.25;10360479;28;20476;-68
2021/10/10 05:54:38;;;;;;;17.30;10.93;;;;;;;4.78;80.84;102784.53;10364282;28;20048;-68
2021/10/10 05:59:35;;;;;;;15.02;10.32;;;;;;;4.73;81.20;102787.06;10368407;27;20036;-68
2021/10/10 06:04:31;;;;;;;18.08;10.25;;;;;;;4.81;81.65;102789.47;10369629;27;20079;-68
2021/10/10 06:09:28;;;;;;;17.42;11.38;;;;;;;4.82;81.17;102782.97;10353925;28;20493;-68
2021/10/10 06:14:24;;;;;;;18.38;11.20;;;;;;;4.87;82.04;102773.34;10358868;27;20514;-68
2021/10/10 06:19:21;;;;;;;16.38;10.32;;;;;;;4.90;82.21;102781.00;10375850;27;20048;-69
2021/10/10 06:24:17;;;;;;;17.08;11.25;;;;;;;4.92;81.78;102778.91;10359359;27;20657;-68
2021/10/10 06:29:14;;;;;;;18.15;10.90;;;;;;;4.96;82.13;102772.78;10370372;27;20738;-70
2021/10/10 06:34:10;;;;;;;17.23;10.80;;;;;;;5.04;82.06;102766.25;10365988;27;20446;-69
2021/10/10 06:39:12;;;;;;;18.00;11.32;;;;;;;5.08;82.82;102772.84;10369869;27;20035;-69
2021/10/10 06:44:09;;;;;;;17.63;10.60;;;;;;;5.17;82.62;102763.31;10367125;27;20044;-68
2021/10/10 06:49:05;;;;;;;20.30;12.02;;;;;;;5.28;82.32;102767.94;10360936;28;20412;-68
2021/10/10 06:54:01;;;;;;;16.60;11.68;;;;;;;5.35;82.91;102767.03;10357048;27;20037;-68
2021/10/10 06:58:58;;;;;;;24.40;12.00;;;;;;;5.40;82.43;102769.88;10369578;27;20083;-68
2021/10/10 07:03:55;;;;;;;20.20;11.68;;;;;;;5.41;82.61;102783.22;10367635;27;20040;-69
2021/10/10 07:08:52;;;;;;;20.42;12.57;;;;;;;5.44;82.73;102771.88;10344669;27;20040;-69
2021/10/10 07:13:49;;;;;;;21.27;12.23;;;;;;;5.53;82.35;102780.53;10334725;27;20489;-68
2021/10/10 07:18:47;;;;;;;17.80;11.10;;;;;;;5.54;82.78;102776.72;10345558;27;20060;-69
2021/10/10 07:28:50;;;;;;;22.55;12.13;;;;;;;5.69;82.34;102768.97;10327246;28;20071;-68
2021/10/10 07:33:46;;;;;;;19.05;12.52;;;;;;;5.81;81.53;102776.31;10340446;28;20064;-68
2021/10/10 07:38:43;;;;;;;19.35;11.65;;;;;;;5.88;81.35;102772.41;10346286;27;20127;-67
2021/10/10 07:43:42;;;;;;;22.40;12.65;;;;;;;6.04;81.35;102770.91;10342601;28;20040;-72
2021/10/10 07:48:38;;;;;;;19.10;11.63;;;;;;;6.25;80.78;102757.78;10341578;28;20497;-72
2021/10/10 07:53:34;;;;;;;20.77;12.73;;;;;;;6.42;80.20;102753.25;10328502;28;20099;-72
2021/10/10 07:58:31;;;;;;;18.35;12.25;;;;;;;6.58;80.77;102742.69;10333659;27;20044;-75
2021/10/10 08:03:27;;;;;;;20.90;13.02;;;;;;;6.74;80.72;102752.81;10337912;27;20055;-72
2021/10/10 08:08:24;;;;;;;21.38;11.88;;;;;;;6.89;78.92;102758.53;10333773;27;20062;-73
2021/10/10 08:13:20;;;;;;;17.13;11.32;;;;;;;7.08;78.54;102748.28;10329056;28;20085;-72
2021/10/10 08:18:17;;;;;;;16.85;11.43;;;;;;;7.21;78.65;102752.56;10329415;28;20629;-72
2021/10/10 08:23:14;;;;;;;18.98;10.80;;;;;;;7.41;78.18;102752.13;10335175;28;20084;-72
2021/10/10 08:28:11;;;;;;;17.13;11.30;;;;;;;7.60;74.21;102758.13;10337906;28;20128;-72
2021/10/10 08:33:07;;;;;;;19.52;10.77;;;;;;;7.83;72.04;102759.03;10345899;27;20043;-71
2021/10/10 08:38:04;;;;;;;18.02;11.02;;;;;;;8.07;71.93;102756.94;10339865;27;20080;-71
2021/10/10 08:43:06;;;;;;;16.80;9.93;;;;;;;8.16;70.04;102748.06;10347685;27;20146;-73
2021/10/10 08:48:03;;;;;;;17.33;10.52;;;;;;;8.21;69.60;102756.34;10327972;28;20520;-71
2021/10/10 08:53:00;;;;;;;17.70;10.68;;;;;;;8.26;69.49;102741.09;10328585;28;20126;-71
2021/10/10 08:57:58;;;;;;;17.95;11.35;;;;;;;8.38;68.71;102739.09;10345688;27;20058;-71
2021/10/10 09:02:55;;;;;;;16.73;10.02;;;;;;;8.58;69.13;102733.91;10341542;27;20048;-71
2021/10/10 09:07:54;;;;;;;17.98;10.52;;;;;;;8.72;70.15;102738.97;10325843;27;20075;-73
2021/10/10 09:12:52;;;;;;;17.20;10.43;;;;;;;8.84;68.39;102737.75;10349705;27;20482;-72
2021/10/10 09:17:55;;;;;;;14.93;9.43;;;;;;;8.98;67.05;102732.72;10349419;28;20497;-74
2021/10/10 09:22:51;;;;;;;16.95;10.45;;;;;;;9.17;66.15;102735.06;10345109;28;20102;-71
2021/10/10 09:27:47;;;;;;;14.52;10.00;;;;;;;9.31;66.07;102722.63;10374678;27;20032;-72
2021/10/10 09:32:44;;;;;;;18.27;9.77;;;;;;;9.58;65.56;102724.47;10370467;27;20498;-73
2021/10/10 09:37:44;;;;;;;17.13;10.27;;;;;;;9.77;64.18;102712.06;10374376;27;20044;-71
2021/10/10 09:42:45;;;;;;;15.85;8.90;;;;;;;9.90;62.55;102721.69;10363834;27;20716;-71
2021/10/10 09:47:51;;;;;;;16.80;10.18;;;;;;;10.04;61.56;102711.09;10363319;27;20044;-71
2021/10/10 09:52:59;;;;;;;18.52;10.43;;;;;;;10.18;61.24;102701.31;10367257;27;20066;-71
2021/10/10 09:57:56;;;;;;;15.95;9.20;;;;;;;10.20;59.53;102704.63;10356807;27;20064;-70
2021/10/10 10:03:06;;;;;;;15.68;9.70;;;;;;;10.16;59.88;102703.50;10373568;27;20040;-71
2021/10/10 10:08:04;;;;;;;15.70;9.38;;;;;;;10.13;59.05;102686.81;10346441;27;20478;-70
2021/10/10 10:13:02;;;;;;;13.80;9.15;;;;;;;10.17;59.80;102693.41;10355904;27;20052;-71
2021/10/10 10:18:00;;;;;;;15.30;9.40;;;;;;;10.29;61.20;102692.09;10362841;28;20067;-70
2021/10/10 10:22:58;;;;;;;16.90;11.15;;;;;;;10.34;63.15;102685.03;10371741;28;20048;-71
2021/10/10 10:27:55;;;;;;;19.20;10.65;;;;;;;10.37;60.52;102676.28;10370272;28;20052;-70
2021/10/10 10:32:54;;;;;;;16.13;10.88;;;;;;;10.36;60.66;102669.19;10354971;27;20044;-70
2021/10/10 10:37:53;;;;;;;14.57;9.98;;;;;;;10.43;60.62;102661.53;10371538;27;20382;-70
2021/10/10 10:42:52;;;;;;;16.88;10.73;;;;;;;10.62;61.45;102668.13;10355955;28;20070;-71
2021/10/10 10:47:53;;;;;;;19.67;12.38;;;;;;;10.81;61.70;102664.88;10362938;27;20048;-71
2021/10/10 10:53:13;;;;;;;15.48;10.20;;;;;;;10.90;60.66;102647.66;10361260;27;20093;-72
2021/10/10 10:58:14;;;;;;;17.13;11.02;;;;;;;10.97;60.86;102652.84;10378415;27;20130;-70
2021/10/10 11:03:23;;;;;;;16.52;10.43;;;;;;;11.04;60.96;102658.88;10356010;27;20132;-70
2021/10/10 11:08:22;;;;;;;15.52;10.55;;;;;;;11.16;60.67;102672.28;10355935;28;20039;-72
2021/10/10 11:13:48;;;;;;;16.23;10.00;;;;;;;11.23;59.73;102663.81;10361273;27;20501;-71
2021/10/10 11:18:56;;;;;;;16.90;10.60;;;;;;;11.34;60.21;102657.22;10359006;27;20048;-72
2021/10/10 11:23:56;;;;;;;17.70;10.70;;;;;;;11.41;60.02;102638.59;10349645;27;20076;-72
2021/10/10 11:28:57;;;;;;;20.77;14.05;;;;;;;11.55;59.46;102642.38;10348205;27;20504;-71
2021/10/10 11:33:57;;;;;;;17.05;10.73;;;;;;;11.60;59.78;102633.34;10357799;28;20032;-72
2021/10/10 11:38:55;;;;;;;16.48;10.35;;;;;;;11.56;59.49;102624.06;10344586;27;20126;-71
2021/10/10 11:44:00;;;;;;;21.83;11.75;;;;;;;11.55;59.88;102612.25;10355389;28;20740;-71
2021/10/10 11:48:57;;;;;;;17.17;9.73;;;;;;;11.50;59.80;102615.00;10343932;27;20910;-71
2021/10/10 11:53:53;;;;;;;17.25;11.27;;;;;;;11.55;60.06;102608.69;10350881;27;20064;-73
2021/10/10 11:58:50;;;;;;;15.90;9.73;;;;;;;11.55;58.94;102609.50;10356208;27;20093;-71
2021/10/10 12:03:47;;;;;;;18.20;10.50;;;;;;;11.70;58.68;102618.81;10351330;27;20075;-71
2021/10/10 12:08:44;;;;;;;15.50;9.88;;;;;;;11.85;57.13;102607.78;10348775;28;20036;-71
2021/10/10 12:13:54;;;;;;;15.75;10.90;;;;;;;12.33;57.50;102596.34;10345117;28;20040;-71
2021/10/10 12:18:56;;;;;;;21.88;10.40;;;;;;;12.63;55.43;102584.34;10340517;28;20456;-71
2021/10/10 12:24:10;;;;;;;16.85;9.15;;;;;;;12.94;54.28;102573.91;10362765;27;20068;-71
2021/10/10 12:29:18;;;;;;;14.02;8.60;;;;;;;13.11;52.53;102570.75;10360429;27;20636;-70
2021/10/10 12:34:14;;;;;;;13.98;8.88;;;;;;;13.54;51.77;102568.09;10342949;28;20153;-73
2021/10/10 12:39:11;;;;;;;12.45;8.18;;;;;;;13.98;50.94;102564.25;10358655;27;20086;-71
2021/10/10 12:44:16;;;;;;;16.20;9.75;;;;;;;14.44;50.08;102565.50;10343711;27;20068;-72
2021/10/10 12:49:13;;;;;;;15.77;8.90;;;;;;;14.81;48.76;102564.66;10356583;27;20480;-71
2021/10/10 12:54:19;;;;;;;12.80;9.15;;;;;;;14.88;48.11;102545.81;10335083;27;20507;-70
2021/10/10 12:59:25;;;;;;;13.40;8.25;;;;;;;15.12;48.16;102542.06;10330760;28;20113;-68
2021/10/10 13:04:22;;;;;;;28.85;19.58;;;;;;;15.04;47.91;102534.50;10338323;27;20405;-69
2021/10/10 13:09:21;;;;;;;14.98;8.32;;;;;;;15.04;47.37;102529.81;10335164;28;20673;-69
2021/10/10 13:14:18;;;;;;;14.30;7.82;;;;;;;14.91;47.64;102531.41;10340819;28;20757;-71
2021/10/10 13:19:16;;;;;;;13.60;8.00;;;;;;;14.99;47.44;102526.31;10344629;27;20045;-69
2021/10/10 13:24:14;;;;;;;14.07;7.38;;;;;;;15.17;47.54;102519.91;10324346;28;20127;-72
2021/10/10 13:29:15;;;;;;;11.90;7.63;;;;;;;15.24;47.20;102525.03;10331897;27;20041;-69
2021/10/10 13:34:11;;;;;;;12.93;7.85;;;;;;;15.16;46.99;102510.03;10337831;28;20379;-71
2021/10/10 13:39:08;;;;;;;12.95;8.23;;;;;;;15.02;47.46;102503.72;10337198;27;20140;-70
2021/10/10 13:44:05;;;;;;;12.18;8.77;;;;;;;15.06;49.10;102511.06;10332362;28;20528;-69
2021/10/10 13:49:02;;;;;;;12.00;8.30;;;;;;;14.91;47.53;102501.13;10334205;27;20417;-71
2021/10/10 13:53:59;;;;;;;13.85;8.40;;;;;;;15.01;49.08;102502.06;10332922;27;20079;-70
2021/10/10 13:58:56;;;;;;;11.10;7.78;;;;;;;15.10;47.81;102490.00;10323058;28;20478;-69
2021/10/10 14:03:53;;;;;;;11.80;7.28;;;;;;;15.12;47.11;102495.22;10332096;28;20146;-69
2021/10/10 14:08:49;;;;;;;11.73;6.97;;;;;;;15.03;47.61;102483.28;10337205;28;20072;-71
2021/10/10 14:13:46;;;;;;;13.45;7.70;;;;;;;14.83;48.00;102479.81;10353075;28;20041;-72
2021/10/10 14:18:43;;;;;;;13.95;7.78;;;;;;;14.82;49.38;102469.91;10345531;28;20036;-72
2021/10/10 14:23:39;;;;;;;12.80;7.00;;;;;;;14.67;50.37;102464.69;10350126;28;20138;-71
2021/10/10 14:28:36;;;;;;;12.02;6.95;;;;;;;14.70;50.53;102469.59;10357673;28;20074;-69
2021/10/10 14:33:33;;;;;;;12.75;7.68;;;;;;;14.69;50.62;102462.44;10366085;28;20520;-70
2021/10/10 14:38:29;;;;;;;11.77;8.18;;;;;;;14.71;50.53;102454.69;10346992;27;20043;-70
2021/10/10 14:43:30;;;;;;;11.13;7.28;;;;;;;14.62;49.35;102451.00;10342004;27;20040;-70
2021/10/10 14:48:27;;;;;;;11.63;7.40;;;;;;;14.62;50.82;102448.25;10362722;27;20071;-70
2021/10/10 14:53:23;;;;;;;13.45;7.10;;;;;;;14.55;51.37;102445.06;10358956;28;20494;-70
2021/10/10 14:58:22;;;;;;;13.05;7.78;;;;;;;14.44;51.25;102439.72;10365944;27;20093;-70
2021/10/10 15:03:20;;;;;;;10.75;6.22;;;;;;;14.36;51.12;102439.59;10355954;27;20075;-70
2021/10/10 15:08:16;;;;;;;11.90;5.97;;;;;;;14.28;51.54;102438.38;10351569;27;20513;-70
2021/10/10 15:13:15;;;;;;;11.27;6.13;;;;;;;14.20;52.15;102430.78;10330893;27;20048;-69
2021/10/10 15:18:11;;;;;;;11.93;6.57;;;;;;;14.12;52.35;102423.22;10336609;27;20087;-72
2021/10/10 15:23:08;;;;;;;12.27;6.55;;;;;;;14.05;53.86;102418.91;10334499;27;20140;-70
2021/10/10 15:28:05;;;;;;;13.15;6.80;;;;;;;13.96;53.57;102423.47;10337510;28;20123;-69
2021/10/10 15:33:02;;;;;;;10.38;6.70;;;;;;;13.90;53.70;102416.41;10333379;28;20071;-70
2021/10/10 15:37:59;;;;;;;11.80;6.85;;;;;;;13.84;56.69;102409.38;10331108;28;20399;-69
2021/10/10 15:42:56;;;;;;;11.90;6.78;;;;;;;13.73;56.02;102407.88;10354304;27;20040;-71
2021/10/10 15:47:52;;;;;;;12.88;7.05;;;;;;;13.63;56.90;102401.44;10329182;28;20044;-70
2021/10/10 15:52:50;;;;;;;12.07;6.97;;;;;;;13.51;57.54;102395.56;10348897;28;20147;-69
2021/10/10 15:57:46;;;;;;;13.77;7.57;;;;;;;13.41;56.82;102390.19;10328729;27;20041;-69
2021/10/10 16:02:46;;;;;;;11.80;6.90;;;;;;;13.25;58.79;102395.06;10346967;27;20101;-70
2021/10/10 16:07:44;;;;;;;13.82;6.57;;;;;;;13.10;59.81;102387.84;10339505;27;20395;-69
2021/10/10 16:12:41;;;;;;;10.50;7.05;;;;;;;12.94;60.35;102381.72;10345587;27;20097;-69
2021/10/10 16:17:44;;;;;;;11.13;6.97;;;;;;;12.76;62.52;102377.00;10340799;28;20547;-70
2021/10/10 16:22:41;;;;;;;11.18;7.20;;;;;;;12.58;63.51;102384.06;10349666;27;20036;-70
2021/10/10 16:27:38;;;;;;;13.05;8.45;;;;;;;12.41;63.71;102374.34;10332000;27;20072;-70
2021/10/10 16:32:35;;;;;;;15.38;8.73;;;;;;;12.28;63.81;102369.56;10333383;27;20040;-70
2021/10/10 16:42:33;;;;;;;18.27;8.98;;;;;;;11.93;65.46;102371.50;10348611;27;20050;-69
2021/10/10 16:47:30;;;;;;;14.43;9.25;;;;;;;11.79;65.48;102367.75;10348407;28;20131;-69
2021/10/10 16:52:27;;;;;;;13.52;9.18;;;;;;;11.62;65.82;102372.78;10343408;27;20047;-70
2021/10/10 16:57:24;;;;;;;14.25;8.85;;;;;;;11.47;66.30;102366.31;10337985;28;20051;-70
2021/10/10 17:02:21;;;;;;;14.25;8.93;;;;;;;11.35;66.87;102363.13;10344907;27;20105;-70
2021/10/10 17:07:17;;;;;;;15.07;9.32;;;;;;;11.25;67.67;102363.16;10350498;27;20557;-71
2021/10/10 17:12:16;;;;;;;13.35;8.98;;;;;;;11.09;68.24;102363.25;10342926;27;20100;-70
2021/10/10 17:17:13;;;;;;;18.23;9.30;;;;;;;10.98;68.33;102364.41;10344088;28;20269;-70
2021/10/10 17:22:10;;;;;;;14.77;10.38;;;;;;;10.88;69.01;102358.94;10330933;28;20070;-69
2021/10/10 17:27:07;;;;;;;16.77;9.95;;;;;;;10.77;69.85;102362.81;10352506;27;20101;-71
2021/10/10 17:32:04;;;;;;;16.17;10.48;;;;;;;10.69;70.26;102356.81;10330006;27;20151;-71
2021/10/10 17:37:01;;;;;;;18.25;10.30;;;;;;;10.64;70.29;102361.50;10338011;28;20501;-71
2021/10/10 17:41:58;;;;;;;17.98;10.52;;;;;;;10.56;70.61;102365.63;10342796;27;20066;-71
2021/10/10 17:46:56;;;;;;;17.85;10.73;;;;;;;10.56;70.49;102368.38;10344104;28;20113;-69
2021/10/10 17:51:53;;;;;;;18.15;10.63;;;;;;;10.53;70.92;102386.13;10356828;27;20101;-69
2021/10/10 17:56:50;;;;;;;16.20;10.60;;;;;;;10.43;70.92;102380.69;10344220;27;20044;-70
2021/10/10 18:02:01;;;;;;;17.50;11.27;;;;;;;10.37;71.04;102370.03;10348465;27;20402;-70
2021/10/10 18:12:18;;;;;;;16.38;11.65;;;;;;;10.20;71.59;102371.13;10343106;27;20513;-68
2021/10/10 18:17:20;;;;;;;17.33;11.50;;;;;;;10.14;72.27;102372.19;10344379;28;20040;-71
2021/10/10 18:22:18;;;;;;;20.00;10.85;;;;;;;10.07;71.55;102377.13;10335962;28;20460;-70
2021/10/10 18:27:15;;;;;;;21.77;11.23;;;;;;;10.00;72.04;102379.31;10345997;27;20074;-70
2021/10/10 18:32:11;;;;;;;18.55;11.85;;;;;;;9.93;72.69;102381.50;10346415;27;20066;-72
2021/10/10 18:37:08;;;;;;;18.67;11.00;;;;;;;9.86;72.84;102379.88;10341171;28;20040;-69
2021/10/10 18:42:06;;;;;;;21.73;11.50;;;;;;;9.78;73.57;102385.88;10335651;27;20075;-70
2021/10/10 18:47:04;;;;;;;21.23;11.95;;;;;;;9.73;73.66;102380.41;10340607;28;20522;-70
2021/10/10 18:52:01;;;;;;;21.73;12.38;;;;;;;9.69;73.69;102376.56;10336799;27;20044;-70
2021/10/10 18:56:57;;;;;;;17.33;11.73;;;;;;;9.62;73.94;102370.56;10322477;27;20052;-70
2021/10/10 19:01:54;;;;;;;20.98;12.88;;;;;;;9.56;74.00;102371.63;10342113;27;20070;-70
2021/10/10 19:06:51;;;;;;;22.63;12.88;;;;;;;9.50;74.68;102372.72;10346269;28;20055;-70
2021/10/10 19:11:51;;;;;;;19.98;12.50;;;;;;;9.41;74.40;102365.06;10327711;28;20048;-70
2021/10/10 19:16:48;;;;;;;18.42;12.68;;;;;;;9.35;74.32;102360.69;10353551;28;20135;-70
2021/10/10 19:21:45;;;;;;;21.17;12.85;;;;;;;9.30;75.55;102352.47;10339363;28;20135;-70
2021/10/10 19:26:43;;;;;;;19.67;12.57;;;;;;;9.23;75.41;102357.34;10346182;27;20135;-70
2021/10/10 19:31:40;;;;;;;19.67;12.02;;;;;;;9.16;74.92;102348.59;10336228;27;20055;-71
2021/10/10 19:36:38;;;;;;;20.50;11.85;;;;;;;9.10;75.70;102336.03;10337436;27;20139;-71
2021/10/10 19:41:35;;;;;;;18.98;12.02;;;;;;;9.01;75.52;102339.28;10344378;27;20079;-71
2021/10/10 19:46:32;;;;;;;21.25;13.98;;;;;;;8.95;75.75;102343.06;10342387;27;20081;-71
2021/10/10 19:51:29;;;;;;;19.95;12.48;;;;;;;8.88;76.26;102349.88;10338727;28;20181;-70
2021/10/10 19:56:26;;;;;;;17.55;12.27;;;;;;;8.83;75.79;102358.84;10342126;27;20457;-71
2021/10/10 20:01:23;;;;;;;19.02;12.27;;;;;;;8.81;75.89;102366.47;10349190;27;20044;-68
2021/10/10 20:06:20;;;;;;;17.73;12.27;;;;;;;8.74;76.53;102365.91;10341619;28;20052;-71
2021/10/10 20:11:18;;;;;;;20.05;13.43;;;;;;;8.67;76.66;102351.69;10331087;27;20048;-70
2021/10/10 20:16:15;;;;;;;20.45;13.05;;;;;;;8.68;76.32;102356.03;10340138;28;20079;-70
2021/10/10 20:21:12;;;;;;;21.40;13.82;;;;;;;8.67;76.70;102343.50;10365805;27;20093;-71
2021/10/10 20:26:27;;;;;;;23.20;13.67;;;;;;;8.59;76.91;102336.66;10334931;28;20056;-68
2021/10/10 20:31:23;;;;;;;23.67;13.38;;;;;;;8.53;76.79;102326.81;10349203;28;20479;-69
2021/10/10 20:36:26;;;;;;;22.23;15.73;;;;;;;8.46;77.35;102331.66;10348139;27;20499;-69
2021/10/10 20:41:23;;;;;;;25.15;15.63;;;;;;;8.39;77.41;102329.16;10356483;27;20501;-69
2021/10/10 20:46:20;;;;;;;24.60;16.05;;;;;;;8.35;77.91;102330.75;10346533;28;20048;-69
2021/10/10 20:51:16;;;;;;;22.77;14.40;;;;;;;8.32;78.19;102336.72;10337281;27;20783;-68
2021/10/10 20:56:14;;;;;;;22.25;14.55;;;;;;;8.32;78.04;102336.72;10341955;28;20100;-69
2021/10/10 21:01:11;;;;;;;26.38;14.98;;;;;;;8.28;78.57;102338.34;10349806;27;20062;-69
2021/10/10 21:06:08;;;;;;;28.33;16.17;;;;;;;8.26;79.24;102326.88;10358151;27;20044;-68
2021/10/10 21:11:05;;;;;;;21.85;14.95;;;;;;;8.23;79.42;102323.59;10361554;28;20048;-68
2021/10/10 21:16:03;;;;;;;25.80;15.73;;;;;;;8.23;79.88;102315.41;10357198;28;20506;-67
2021/10/10 21:21:00;;;;;;;27.38;16.30;;;;;;;8.26;79.66;102299.63;10369485;27;20050;-67
2021/10/10 21:25:56;;;;;;;23.80;14.77;;;;;;;8.27;79.93;102301.28;10357072;27;20044;-67
2021/10/10 21:31:06;;;;;;;23.45;14.70;;;;;;;8.27;80.04;102299.38;10356203;28;20040;-67
2021/10/10 21:36:05;;;;;;;24.02;15.45;;;;;;;8.29;80.31;102285.50;10345760;27;20044;-69
2021/10/10 21:41:02;;;;;;;23.88;15.10;;;;;;;8.29;80.86;102278.13;10346070;28;20105;-68
2021/10/10 21:45:59;;;;;;;24.23;15.00;;;;;;;8.27;80.96;102274.03;10353549;28;20150;-70
2021/10/10 21:50:55;;;;;;;28.67;17.73;;;;;;;8.23;80.84;102279.19;10342549;28;20075;-68
2021/10/10 21:55:52;;;;;;;26.67;16.50;;;;;;;8.19;81.20;102270.72;10354049;28;20112;-68
2021/10/10 22:00:53;;;;;;;24.42;15.95;;;;;;;8.18;81.25;102260.91;10347028;28;20094;-67
2021/10/10 22:05:50;;;;;;;23.58;15.57;;;;;;;8.15;81.44;102245.09;10350575;28;20557;-69
2021/10/10 22:10:46;;;;;;;25.92;16.83;;;;;;;8.13;81.68;102225.44;10350766;27;20044;-66
2021/10/10 22:15:43;;;;;;;28.60;18.45;;;;;;;8.10;81.25;102231.44;10350217;27;20154;-67
2021/10/10 22:20:45;;;;;;;29.13;18.42;;;;;;;8.09;82.21;102235.22;10356266;28;20052;-67
2021/10/10 22:25:44;;;;;;;29.83;18.10;;;;;;;8.09;82.71;102229.78;10351092;27;20067;-67
2021/10/10 22:30:40;;;;;;;28.80;19.08;;;;;;;8.12;82.80;102237.44;10369075;28;20067;-68
2021/10/10 22:35:37;;;;;;;33.78;20.08;;;;;;;8.13;82.65;102230.09;10361734;27;20071;-69
2021/10/10 22:40:33;;;;;;;32.60;19.80;;;;;;;8.14;82.23;102248.88;10354476;27;20557;-71
2021/10/10 22:45:30;;;;;;;28.38;19.60;;;;;;;8.15;82.28;102238.81;10362020;27;20120;-68
2021/10/10 22:50:27;;;;;;;29.13;19.45;;;;;;;8.16;82.42;102235.81;10347677;27;20040;-70